createdAt,value
2023-02-15T00:02:26.749Z,5.70
2023-02-15T00:07:29.891Z,7.07
2023-02-15T00:10:01.027Z,4.90
2023-02-15T00:12:33.818Z,5.22
2023-02-15T00:15:04.856Z,5.28
2023-02-15T00:17:36.038Z,5.72
2023-02-15T00:20:08.316Z,6.18
2023-02-15T00:22:39.938Z,5.80
2023-02-15T00:25:10.922Z,5.22
2023-02-15T00:27:42.062Z,5.85
2023-02-15T00:30:13.558Z,6.03
2023-02-15T00:32:44.708Z,4.57
2023-02-15T00:35:15.842Z,6.63
2023-02-15T00:37:47.062Z,6.03
2023-02-15T00:40:18.502Z,6.05
2023-02-15T00:45:20.345Z,4.43
2023-02-15T00:50:23.828Z,5.45
2023-02-15T00:52:55.478Z,6.60
2023-02-15T00:55:26.862Z,5.70
2023-02-15T00:57:57.810Z,7.88
2023-02-15T01:00:28.928Z,6.13
2023-02-15T01:03:00.967Z,5.30
2023-02-15T01:05:32.552Z,8.23
2023-02-15T01:08:04.216Z,5.15
2023-02-15T01:10:36.242Z,6.13
2023-02-15T01:13:07.831Z,6.22
2023-02-15T01:15:39.510Z,7.00
2023-02-15T01:18:10.989Z,5.35
2023-02-15T01:20:43.591Z,6.57
2023-02-15T01:23:14.580Z,8.27
2023-02-15T01:28:16.691Z,8.20
2023-02-15T01:30:47.816Z,8.38
2023-02-15T01:33:20.856Z,9.02
2023-02-15T01:35:52.120Z,10.55
2023-02-15T01:41:17.416Z,7.43
2023-02-15T01:43:51.391Z,7.97
2023-02-15T01:46:27.930Z,8.02
2023-02-15T01:49:06.989Z,7.10
2023-02-15T01:51:40.014Z,8.70
2023-02-15T01:54:27.069Z,10.57
2023-02-15T01:57:01.593Z,7.85
2023-02-15T01:59:35.508Z,7.05
2023-02-15T02:02:09.093Z,8.35
2023-02-15T02:04:52.069Z,11.75
2023-02-15T02:07:25.361Z,6.07
2023-02-15T02:09:56.840Z,9.13
2023-02-15T02:12:28.838Z,10.80
2023-02-15T02:15:00.334Z,10.50
2023-02-15T02:17:40.128Z,8.20
2023-02-15T02:20:39.096Z,9.60
2023-02-15T02:23:28.524Z,11.70
2023-02-15T02:26:36.247Z,8.20
2023-02-15T02:29:22.279Z,11.95
2023-02-15T02:32:25.441Z,10.93
2023-02-15T02:35:36.789Z,9.65
2023-02-15T02:38:16.934Z,11.32
2023-02-15T02:41:07.020Z,8.32
2023-02-15T02:44:16.584Z,9.93
2023-02-15T02:46:57.962Z,10.80
2023-02-15T02:49:38.304Z,12.07
2023-02-15T02:52:30.464Z,10.98
2023-02-15T02:55:02.666Z,10.80
2023-02-15T02:57:34.610Z,12.25
2023-02-15T03:00:10.891Z,11.63
2023-02-15T03:02:44.879Z,9.48
2023-02-15T03:05:19.503Z,9.68
2023-02-15T03:07:53.525Z,12.05
2023-02-15T03:10:26.217Z,10.43
2023-02-15T03:12:57.824Z,8.95
2023-02-15T03:15:53.300Z,9.65
2023-02-15T03:18:30.170Z,9.77
2023-02-15T03:21:05.154Z,10.90
2023-02-15T03:23:37.640Z,12.90
2023-02-15T03:26:11.216Z,9.27
2023-02-15T03:28:48.573Z,12.68
2023-02-15T03:31:21.224Z,10.63
2023-02-15T03:34:03.834Z,13.93
2023-02-15T03:36:40.367Z,16.25
2023-02-15T03:39:23.406Z,10.65
2023-02-15T03:42:07.155Z,16.50
2023-02-15T03:45:01.910Z,11.35
2023-02-15T03:47:41.297Z,13.93
2023-02-15T03:50:40.555Z,12.38
2023-02-15T03:53:15.550Z,11.20
2023-02-15T03:55:50.584Z,11.50
2023-02-15T03:58:39.704Z,12.18
2023-02-15T04:02:00.762Z,12.25
2023-02-15T04:04:45.060Z,10.63
2023-02-15T04:07:16.696Z,10.90
2023-02-15T04:10:05.432Z,8.82
2023-02-15T04:12:37.140Z,8.88
2023-02-15T04:15:27.149Z,9.48
2023-02-15T04:18:01.298Z,11.13
2023-02-15T04:20:50.812Z,12.57
2023-02-15T04:23:39.556Z,9.30
2023-02-15T04:26:11.555Z,11.27
2023-02-15T04:28:42.850Z,11.23
2023-02-15T04:31:14.055Z,11.00
2023-02-15T04:33:46.342Z,10.93
2023-02-15T04:36:17.655Z,11.85
2023-02-15T04:38:48.682Z,12.75
2023-02-15T04:41:19.707Z,10.70
2023-02-15T04:43:50.869Z,11.18
2023-02-15T04:46:22.273Z,11.45
2023-02-15T04:48:53.768Z,11.82
2023-02-15T04:53:55.694Z,10.02
2023-02-15T04:56:27.056Z,10.52
2023-02-15T04:58:58.346Z,9.88
2023-02-15T05:01:29.701Z,10.88
2023-02-15T05:04:00.981Z,13.18
2023-02-15T05:06:32.446Z,12.73
2023-02-15T05:09:03.954Z,14.00
2023-02-15T05:11:35.540Z,12.70
2023-02-15T05:14:06.969Z,15.85
2023-02-15T05:16:38.810Z,11.02
2023-02-15T05:19:09.900Z,12.68
2023-02-15T05:21:40.956Z,14.25
2023-02-15T05:24:29.894Z,10.38
2023-02-15T05:27:20.126Z,10.30
2023-02-15T05:29:51.828Z,9.90
2023-02-15T05:34:53.526Z,7.93
2023-02-15T05:37:24.644Z,12.38
2023-02-15T05:39:56.029Z,13.25
2023-02-15T05:42:27.012Z,12.80
2023-02-15T05:44:58.311Z,14.38
2023-02-15T05:47:29.560Z,10.50
2023-02-15T05:50:00.569Z,13.27
2023-02-15T05:52:33.420Z,11.60
2023-02-15T05:55:05.141Z,19.17
2023-02-15T05:57:36.354Z,12.98
2023-02-15T06:00:08.438Z,15.15
2023-02-15T06:02:42.685Z,12.93
2023-02-15T06:05:13.954Z,10.63
2023-02-15T06:07:49.629Z,15.25
2023-02-15T06:10:20.798Z,15.18
2023-02-15T06:12:52.083Z,14.02
2023-02-15T06:15:23.330Z,11.85
2023-02-15T06:17:54.836Z,15.30
2023-02-15T06:20:25.778Z,17.13
2023-02-15T06:22:56.732Z,12.80
2023-02-15T06:25:28.032Z,9.95
2023-02-15T06:28:00.144Z,14.07
2023-02-15T06:30:31.405Z,14.27
2023-02-15T06:35:33.519Z,12.30
2023-02-15T06:38:05.049Z,15.98
2023-02-15T06:40:36.225Z,13.93
2023-02-15T06:43:07.376Z,17.33
2023-02-15T06:45:38.429Z,12.73
2023-02-15T06:48:10.556Z,13.20
2023-02-15T06:50:41.766Z,15.45
2023-02-15T06:53:13.198Z,14.50
2023-02-15T06:55:47.256Z,18.30
2023-02-15T06:58:18.347Z,16.92
2023-02-15T07:00:49.404Z,15.60
2023-02-15T07:03:20.727Z,15.27
2023-02-15T07:05:52.208Z,12.80
2023-02-15T07:08:23.398Z,15.45
2023-02-15T07:10:55.066Z,14.95
2023-02-15T07:13:26.196Z,15.77
2023-02-15T07:15:57.391Z,19.33
2023-02-15T07:18:31.099Z,14.48
2023-02-15T07:21:02.213Z,14.30
2023-02-15T07:23:33.397Z,14.80
2023-02-15T07:26:08.898Z,14.75
2023-02-15T07:28:40.884Z,16.63
2023-02-15T07:31:12.210Z,14.43
2023-02-15T07:36:14.622Z,16.90
2023-02-15T07:38:51.747Z,14.70
2023-02-15T07:41:23.391Z,15.27
2023-02-15T07:43:54.886Z,18.58
2023-02-15T07:46:34.616Z,17.40
2023-02-15T07:49:06.243Z,15.88
2023-02-15T07:51:37.615Z,18.50
2023-02-15T07:54:08.838Z,13.40
2023-02-15T07:56:39.828Z,17.85
2023-02-15T07:59:11.561Z,15.63
2023-02-15T08:01:43.202Z,17.65
2023-02-15T08:04:14.526Z,13.88
2023-02-15T08:06:45.597Z,15.20
2023-02-15T08:09:16.691Z,17.95
2023-02-15T08:11:48.213Z,16.30
2023-02-15T08:14:25.681Z,16.23
2023-02-15T08:16:58.727Z,19.20
2023-02-15T08:19:31.997Z,16.17
2023-02-15T08:22:06.475Z,14.18
2023-02-15T08:24:40.091Z,16.67
2023-02-15T08:27:13.250Z,14.77
2023-02-15T08:29:45.445Z,16.80
2023-02-15T08:32:16.730Z,15.02
2023-02-15T08:34:47.903Z,12.93
2023-02-15T08:37:18.905Z,14.05
2023-02-15T08:39:49.837Z,17.17
2023-02-15T08:42:23.164Z,17.40
2023-02-15T08:44:54.200Z,17.63
2023-02-15T08:47:25.231Z,16.35
2023-02-15T08:49:56.537Z,13.15
2023-02-15T08:52:28.059Z,17.10
2023-02-15T08:54:58.996Z,15.52
2023-02-15T08:57:30.919Z,12.77
2023-02-15T09:02:33.588Z,14.50
2023-02-15T09:05:05.349Z,13.50
2023-02-15T09:07:36.698Z,15.13
2023-02-15T09:10:08.594Z,17.98
2023-02-15T09:12:39.490Z,13.80
2023-02-15T09:15:10.851Z,17.00
2023-02-15T09:17:41.839Z,10.68
2023-02-15T09:20:13.342Z,15.48
2023-02-15T09:22:44.308Z,11.57
2023-02-15T09:25:16.155Z,14.75
2023-02-15T09:27:47.140Z,13.90
2023-02-15T09:32:49.988Z,11.27
2023-02-15T09:35:21.162Z,17.52
2023-02-15T09:37:52.386Z,14.38
2023-02-15T09:40:23.791Z,11.23
2023-02-15T09:43:39.407Z,13.93
2023-02-15T09:46:23.782Z,14.32
2023-02-15T09:49:02.557Z,16.55
2023-02-15T09:51:48.713Z,15.80
2023-02-15T09:54:29.300Z,10.63
2023-02-15T09:57:08.414Z,12.73
2023-02-15T10:00:19.790Z,14.43
2023-02-15T10:03:06.827Z,12.90
2023-02-15T10:05:59.556Z,14.05
2023-02-15T10:08:51.537Z,10.95
2023-02-15T10:11:44.015Z,12.77
2023-02-15T10:14:43.192Z,12.68
2023-02-15T10:17:32.297Z,12.70
2023-02-15T10:20:32.536Z,12.02
2023-02-15T10:23:06.746Z,12.43
2023-02-15T10:26:05.367Z,12.90
2023-02-15T10:28:39.749Z,10.18
2023-02-15T10:31:18.506Z,12.48
2023-02-15T10:33:50.036Z,12.18
2023-02-15T10:36:38.138Z,14.95
2023-02-15T10:39:26.931Z,16.30
2023-02-15T10:42:37.966Z,14.82
2023-02-15T10:45:12.222Z,10.80
2023-02-15T10:47:55.222Z,15.15
2023-02-15T10:50:33.639Z,13.05
2023-02-15T10:53:17.593Z,15.02
2023-02-15T10:56:15.366Z,14.10
2023-02-15T10:59:07.724Z,14.35
2023-02-15T11:01:57.085Z,17.13
2023-02-15T11:04:43.539Z,11.30
2023-02-15T11:07:29.401Z,12.70
2023-02-15T11:10:46.367Z,10.93
2023-02-15T11:13:22.214Z,16.38
2023-02-15T11:16:08.646Z,12.10
2023-02-15T11:18:45.044Z,15.48
2023-02-15T11:21:54.355Z,12.80
2023-02-15T11:24:30.009Z,13.80
2023-02-15T11:27:23.692Z,14.88
2023-02-15T11:29:57.942Z,11.20
2023-02-15T11:32:42.205Z,13.48
2023-02-15T11:35:16.380Z,13.68
2023-02-15T11:38:18.025Z,14.18
2023-02-15T11:41:01.501Z,14.05
2023-02-15T11:44:21.854Z,14.95
2023-02-15T11:46:53.953Z,15.00
2023-02-15T11:49:35.111Z,17.00
2023-02-15T11:52:10.581Z,14.80
2023-02-15T11:54:54.108Z,12.13
2023-02-15T11:57:40.652Z,11.32
2023-02-15T12:00:18.954Z,16.73
2023-02-15T12:02:53.675Z,13.75
2023-02-15T12:05:27.012Z,12.75
2023-02-15T12:08:19.995Z,18.65
2023-02-15T12:11:01.092Z,15.82
2023-02-15T12:13:32.672Z,16.55
2023-02-15T12:18:49.902Z,14.23
2023-02-15T12:21:44.063Z,12.93
2023-02-15T12:24:48.689Z,15.05
2023-02-15T12:27:46.404Z,14.23
2023-02-15T12:30:28.679Z,12.25
2023-02-15T12:33:02.781Z,13.18
2023-02-15T12:35:36.779Z,13.63
2023-02-15T12:38:13.783Z,14.07
2023-02-15T12:40:45.939Z,13.98
2023-02-15T12:43:36.813Z,18.15
2023-02-15T12:46:24.759Z,15.35
2023-02-15T12:49:22.620Z,14.07
2023-02-15T12:51:58.378Z,18.02
2023-02-15T12:54:44.366Z,13.05
2023-02-15T12:57:23.991Z,18.73
2023-02-15T13:00:03.197Z,16.92
2023-02-15T13:02:45.044Z,14.55
2023-02-15T13:05:26.101Z,18.63
2023-02-15T13:08:05.792Z,20.10
2023-02-15T13:11:04.069Z,17.08
2023-02-15T13:13:37.491Z,12.20
2023-02-15T13:16:14.673Z,13.95
2023-02-15T13:18:50.295Z,13.35
2023-02-15T13:21:31.341Z,16.35
2023-02-15T13:24:10.133Z,17.60
2023-02-15T13:26:43.143Z,10.80
2023-02-15T13:29:25.807Z,14.55
2023-02-15T13:31:58.289Z,13.50
2023-02-15T13:34:36.838Z,10.68
2023-02-15T13:37:35.081Z,17.92
2023-02-15T13:40:20.925Z,10.75
2023-02-15T13:43:22.171Z,11.10
2023-02-15T13:46:08.611Z,14.32
2023-02-15T13:48:50.781Z,11.73
2023-02-15T13:51:46.472Z,13.45
2023-02-15T13:54:46.068Z,14.13
2023-02-15T13:57:41.846Z,11.95
2023-02-15T14:00:24.568Z,14.13
2023-02-15T14:03:04.432Z,12.43
2023-02-15T14:05:53.402Z,13.85
2023-02-15T14:08:42.733Z,12.38
2023-02-15T14:11:35.251Z,12.40
2023-02-15T14:14:59.642Z,11.70
2023-02-15T14:17:43.044Z,15.70
2023-02-15T14:20:39.963Z,14.65
2023-02-15T14:23:26.307Z,20.83
2023-02-15T14:26:17.784Z,15.30
2023-02-15T14:29:06.671Z,12.55
2023-02-15T14:31:42.299Z,12.20
2023-02-15T14:34:27.109Z,15.10
2023-02-15T14:36:59.067Z,15.27
2023-02-15T14:42:35.999Z,13.80
2023-02-15T14:45:26.356Z,14.45
2023-02-15T14:48:12.449Z,13.65
2023-02-15T14:50:48.568Z,14.10
2023-02-15T14:53:28.672Z,14.30
2023-02-15T14:56:23.106Z,12.73
2023-02-15T14:58:58.742Z,16.38
2023-02-15T15:01:33.833Z,14.85
2023-02-15T15:04:16.198Z,12.68
2023-02-15T15:06:47.696Z,17.65
2023-02-15T15:09:45.304Z,12.60
2023-02-15T15:12:25.334Z,14.85
2023-02-15T15:14:57.121Z,12.68
2023-02-15T15:17:40.461Z,13.93
2023-02-15T15:20:46.790Z,13.30
2023-02-15T15:23:18.351Z,12.38
2023-02-15T15:25:56.578Z,11.93
2023-02-15T15:28:36.908Z,15.18
2023-02-15T15:31:08.222Z,12.65
2023-02-15T15:33:50.776Z,11.85
2023-02-15T15:36:50.459Z,15.77
2023-02-15T15:39:43.375Z,12.38
2023-02-15T15:42:33.819Z,13.88
2023-02-15T15:45:45.795Z,16.35
2023-02-15T15:48:40.372Z,9.98
2023-02-15T15:51:17.725Z,10.18
2023-02-15T15:53:52.885Z,12.65
2023-02-15T15:56:35.618Z,16.13
2023-02-15T15:59:14.992Z,10.68
2023-02-15T16:01:47.820Z,10.57
2023-02-15T16:04:51.273Z,12.73
2023-02-15T16:07:22.555Z,15.07
2023-02-15T16:10:01.805Z,11.60
2023-02-15T16:12:37.345Z,10.32
2023-02-15T16:15:19.270Z,14.20
2023-02-15T16:17:58.815Z,13.23
2023-02-15T16:20:34.296Z,14.52
2023-02-15T16:23:05.278Z,11.68
2023-02-15T16:25:58.863Z,11.70
2023-02-15T16:28:30.401Z,14.52
2023-02-15T16:31:15.868Z,14.07
2023-02-15T16:33:47.989Z,12.73
2023-02-15T16:38:59.917Z,15.15
2023-02-15T16:41:32.869Z,11.27
2023-02-15T16:44:15.730Z,12.07
2023-02-15T16:46:56.414Z,11.55
2023-02-15T16:49:30.081Z,13.13
2023-02-15T16:52:09.613Z,16.42
2023-02-15T16:54:40.716Z,17.52
2023-02-15T16:57:35.840Z,12.65
2023-02-15T17:00:18.119Z,12.25
2023-02-15T17:05:43.536Z,14.32
2023-02-15T17:08:27.112Z,7.88
2023-02-15T17:11:23.731Z,12.32
2023-02-15T17:14:13.367Z,12.55
2023-02-15T17:16:51.420Z,9.63
2023-02-15T17:19:31.694Z,11.82
2023-02-15T17:22:05.970Z,11.27
2023-02-15T17:24:46.129Z,13.07
2023-02-15T17:27:20.368Z,13.13
2023-02-15T17:30:02.573Z,11.13
2023-02-15T17:32:36.814Z,12.80
2023-02-15T17:35:27.163Z,12.38
2023-02-15T17:38:30.534Z,14.10
2023-02-15T17:41:02.016Z,9.50
2023-02-15T17:43:33.678Z,12.13
2023-02-15T17:46:04.961Z,10.25
2023-02-15T17:48:38.714Z,12.40
2023-02-15T17:51:13.754Z,11.55
2023-02-15T17:54:04.400Z,9.75
2023-02-15T17:56:39.540Z,9.40
2023-02-15T17:59:12.898Z,11.63
2023-02-15T18:02:09.794Z,9.75
2023-02-15T18:04:59.034Z,10.25
2023-02-15T18:07:48.501Z,15.75
2023-02-15T18:10:39.503Z,15.07
2023-02-15T18:13:10.997Z,18.65
2023-02-15T18:15:42.386Z,13.23
2023-02-15T18:18:15.195Z,13.73
2023-02-15T18:20:46.688Z,15.57
2023-02-15T18:23:17.869Z,10.95
2023-02-15T18:25:49.412Z,13.10
2023-02-15T18:28:20.544Z,14.10
2023-02-15T18:30:53.847Z,9.18
2023-02-15T18:33:46.254Z,11.68
2023-02-15T18:36:24.745Z,11.43
2023-02-15T18:38:56.664Z,10.82
2023-02-15T18:41:31.180Z,10.40
2023-02-15T18:44:03.136Z,10.18
2023-02-15T18:46:34.291Z,7.63
2023-02-15T18:49:05.686Z,9.90
2023-02-15T18:51:41.429Z,8.70
2023-02-15T18:54:22.016Z,6.18
2023-02-15T18:57:03.111Z,7.05
2023-02-15T18:59:34.289Z,8.65
2023-02-15T19:02:05.557Z,9.25
2023-02-15T19:04:36.489Z,9.88
2023-02-15T19:07:07.574Z,6.43
2023-02-15T19:09:38.720Z,7.80
2023-02-15T19:12:14.113Z,8.00
2023-02-15T19:14:45.574Z,7.18
2023-02-15T19:17:22.247Z,9.20
2023-02-15T19:19:54.645Z,5.43
2023-02-15T19:22:36.354Z,7.72
2023-02-15T19:25:08.527Z,7.65
2023-02-15T19:27:39.803Z,6.07
2023-02-15T19:30:31.634Z,6.03
2023-02-15T19:33:04.209Z,7.75
2023-02-15T19:35:37.480Z,7.57
2023-02-15T19:38:14.058Z,8.52
2023-02-15T19:40:45.784Z,7.43
2023-02-15T19:43:23.190Z,10.77
2023-02-15T19:45:56.493Z,9.63
2023-02-15T19:48:27.763Z,7.57
2023-02-15T19:50:59.314Z,10.50
2023-02-15T19:53:31.837Z,8.38
2023-02-15T19:56:03.201Z,9.15
2023-02-15T19:58:35.227Z,8.32
2023-02-15T20:01:06.816Z,11.52
2023-02-15T20:03:38.339Z,9.60
2023-02-15T20:08:40.223Z,10.32
2023-02-15T20:11:13.489Z,11.50
2023-02-15T20:13:44.497Z,10.68
2023-02-15T20:16:15.842Z,10.25
2023-02-15T20:18:47.937Z,9.45
2023-02-15T20:21:19.631Z,11.60
2023-02-15T20:23:50.689Z,13.52
2023-02-15T20:26:22.524Z,9.55
2023-02-15T20:31:24.567Z,7.80
2023-02-15T20:33:55.519Z,9.57
2023-02-15T20:36:27.005Z,9.05
2023-02-15T20:38:59.401Z,7.38
2023-02-15T20:41:41.582Z,7.07
2023-02-15T20:44:26.952Z,9.30
2023-02-15T20:47:00.686Z,9.82
2023-02-15T20:49:32.036Z,9.55
2023-02-15T20:52:04.081Z,9.77
2023-02-15T20:54:36.961Z,10.25
2023-02-15T20:57:08.515Z,8.20
2023-02-15T20:59:39.889Z,6.75
2023-02-15T21:04:59.550Z,10.65
2023-02-15T21:10:01.734Z,10.05
2023-02-15T21:12:33.858Z,8.88
2023-02-15T21:15:04.842Z,10.73
2023-02-15T21:17:35.845Z,8.05
2023-02-15T21:20:07.218Z,9.27
2023-02-15T21:22:38.619Z,9.23
2023-02-15T21:25:12.021Z,10.43
2023-02-15T21:27:43.841Z,6.50
2023-02-15T21:30:19.686Z,10.57
2023-02-15T21:32:51.062Z,7.93
2023-02-15T21:35:23.026Z,8.00
2023-02-15T21:37:55.274Z,7.40
2023-02-15T21:40:30.212Z,7.93
2023-02-15T21:43:19.352Z,7.53
2023-02-15T21:46:08.377Z,7.55
2023-02-15T21:48:40.538Z,7.20
2023-02-15T21:51:29.877Z,7.13
2023-02-15T21:54:01.286Z,7.68
2023-02-15T21:56:32.488Z,6.22
2023-02-15T21:59:03.790Z,6.85
2023-02-15T22:01:35.248Z,6.28
2023-02-15T22:04:06.610Z,7.47
2023-02-15T22:06:38.222Z,5.93
2023-02-15T22:09:20.735Z,7.15
2023-02-15T22:11:52.704Z,8.25
2023-02-15T22:14:39.926Z,5.55
2023-02-15T22:17:36.064Z,9.07
2023-02-15T22:20:18.720Z,4.50
2023-02-15T22:22:50.868Z,4.75
2023-02-15T22:25:27.408Z,6.15
2023-02-15T22:27:58.950Z,6.15
2023-02-15T22:33:03.142Z,5.38
2023-02-15T22:35:36.141Z,7.00
2023-02-15T22:38:07.717Z,6.57
2023-02-15T22:40:39.244Z,7.15
2023-02-15T22:43:22.258Z,6.20
2023-02-15T22:45:53.474Z,4.35
2023-02-15T22:53:27.717Z,5.43
2023-02-15T22:55:59.978Z,7.22
2023-02-15T22:58:31.609Z,5.40
2023-02-15T23:01:03.947Z,6.00
2023-02-15T23:03:35.353Z,6.60
2023-02-15T23:06:06.838Z,4.40
2023-02-15T23:08:38.183Z,7.30
2023-02-15T23:11:12.806Z,5.75
2023-02-15T23:13:44.001Z,5.88
2023-02-15T23:16:19.602Z,6.70
2023-02-15T23:18:51.483Z,6.10
2023-02-15T23:21:24.124Z,6.88
2023-02-15T23:23:58.078Z,6.85
2023-02-15T23:26:32.520Z,4.03
2023-02-15T23:29:05.611Z,6.93
2023-02-15T23:31:46.840Z,8.35
2023-02-15T23:36:55.856Z,5.20
2023-02-15T23:42:29.363Z,7.82
2023-02-15T23:45:00.476Z,6.97
2023-02-15T23:47:56.049Z,6.13
2023-02-15T23:50:33.006Z,6.20
2023-02-15T23:53:05.677Z,6.22
2023-02-15T23:55:43.124Z,5.03
2023-02-15T23:58:26.293Z,6.55
